Time;durP1;ratioP1;P1;durP2;ratioP2;P2;SDS_P1;SDS_P2;PMS_P1;PMS_P2;Temp;Humidity;BMP_temperature;BMP_pressure;BME280_temperature;BME280_humidity;BME280_pressure;Samples;Min_cycle;Max_cycle;Signal;HPM_P1;HPM_P2
2022/01/24 00:01:47;;;;;;;10.18;6.78;;;;;;;4.98;87.59;102714.50;5020964;28;20099;-23
2022/01/24 00:04:13;;;;;;;10.88;6.72;;;;;;;4.98;87.80;102711.91;5023337;28;20032;-23
2022/01/24 00:06:40;;;;;;;11.63;7.20;;;;;;;4.97;86.93;102707.47;5021416;28;20021;-23
2022/01/24 00:09:06;;;;;;;12.32;7.75;;;;;;;4.99;87.71;102703.22;5021853;28;20042;-23
2022/01/24 00:17:02;;;;;;;9.52;6.63;;;;;;;4.98;87.24;102693.59;5023295;28;20087;-23
2022/01/24 00:27:41;;;;;;;10.25;6.63;;;;;;;4.97;87.89;102691.78;5026144;28;20343;-23
2022/01/24 00:30:07;;;;;;;11.10;7.28;;;;;;;4.98;87.82;102690.06;5026535;28;21385;-23
2022/01/24 00:32:33;;;;;;;12.20;7.88;;;;;;;4.98;88.20;102687.44;5023348;28;20025;-23
2022/01/24 00:34:59;;;;;;;11.50;7.35;;;;;;;4.97;87.65;102685.66;5027815;28;20025;-23
2022/01/24 00:37:27;;;;;;;10.35;7.10;;;;;;;4.98;88.75;102695.28;5023472;28;20025;-23
2022/01/24 00:39:52;;;;;;;11.55;7.78;;;;;;;4.98;88.74;102685.75;5024061;28;20033;-23
2022/01/24 00:45:35;;;;;;;12.23;7.00;;;;;;;4.96;88.22;102691.69;5022346;28;20540;-23
2022/01/24 00:55:42;;;;;;;12.90;8.35;;;;;;;4.94;88.15;102686.41;5021586;28;20022;-23
2022/01/24 00:58:07;;;;;;;11.43;7.40;;;;;;;4.94;88.05;102681.16;5025746;28;20126;-24
2022/01/24 01:00:34;;;;;;;10.43;7.18;;;;;;;4.95;88.43;102685.59;5020727;28;20101;-23
2022/01/24 01:02:59;;;;;;;13.68;7.63;;;;;;;4.92;88.52;102675.00;5021958;28;20031;-23
2022/01/24 01:05:37;;;;;;;10.93;7.72;;;;;;;4.93;88.73;102682.00;5021949;28;20104;-24
2022/01/24 01:18:45;;;;;;;11.38;7.38;;;;;;;4.92;88.08;102685.44;5025923;28;20429;-23
2022/01/24 01:21:13;;;;;;;12.45;7.35;;;;;;;4.91;88.68;102677.53;5022913;28;20025;-24
2022/01/24 01:23:44;;;;;;;12.15;7.60;;;;;;;4.91;88.69;102678.44;5024830;28;20493;-23
2022/01/24 01:26:19;;;;;;;12.65;7.88;;;;;;;4.90;88.32;102676.63;5022088;28;20405;-23
2022/01/24 01:28:48;;;;;;;12.90;7.90;;;;;;;4.91;89.05;102683.66;5022276;28;20128;-23
2022/01/24 01:31:24;;;;;;;14.77;8.63;;;;;;;4.91;88.83;102683.66;5023259;28;20033;-23
2022/01/24 01:36:24;;;;;;;10.10;6.88;;;;;;;4.90;87.94;102681.84;5022344;28;20034;-24
2022/01/24 01:55:26;;;;;;;12.50;7.32;;;;;;;4.89;87.61;102682.69;5021321;28;20037;-23
2022/01/24 01:57:52;;;;;;;11.25;6.68;;;;;;;4.90;87.65;102689.69;5021353;28;20456;-23
2022/01/24 02:00:18;;;;;;;12.93;7.75;;;;;;;4.89;87.54;102680.06;5024997;28;20021;-23
2022/01/24 02:02:44;;;;;;;10.25;7.70;;;;;;;4.89;87.85;102674.84;5022847;28;20053;-23
2022/01/24 02:05:10;;;;;;;12.15;7.03;;;;;;;4.90;87.47;102674.00;5020445;28;20025;-23
2022/01/24 02:07:46;;;;;;;10.30;7.22;;;;;;;4.90;87.19;102676.63;5020147;28;20025;-23
2022/01/24 02:10:11;;;;;;;12.48;7.28;;;;;;;4.90;87.99;102671.38;5020558;28;20315;-23
2022/01/24 02:12:37;;;;;;;10.55;7.93;;;;;;;4.90;87.54;102660.94;5019142;28;20128;-23
2022/01/24 02:15:03;;;;;;;10.93;7.32;;;;;;;4.90;87.38;102666.16;5022627;28;20021;-23
2022/01/24 02:18:02;;;;;;;9.95;7.32;;;;;;;4.90;87.68;102665.28;5024118;28;20033;-23
2022/01/24 02:23:02;;;;;;;12.38;7.82;;;;;;;4.91;87.20;102660.13;5023074;28;20517;-23
2022/01/24 02:25:30;;;;;;;13.13;8.80;;;;;;;4.89;87.34;102661.75;5022590;28;20389;-23
2022/01/24 02:28:02;;;;;;;13.73;8.57;;;;;;;4.91;87.48;102661.84;5020771;28;20059;-23
2022/01/24 02:33:03;;;;;;;13.77;8.20;;;;;;;4.90;86.92;102665.28;5025543;28;20017;-23
2022/01/24 02:35:28;;;;;;;13.35;8.07;;;;;;;4.91;87.49;102662.75;5021660;28;20033;-23
2022/01/24 02:37:56;;;;;;;12.65;7.95;;;;;;;4.90;87.12;102658.31;5023029;28;21460;-23
2022/01/24 02:40:24;;;;;;;15.05;8.00;;;;;;;4.90;86.98;102655.69;5023528;28;20028;-23
2022/01/24 02:53:24;;;;;;;15.50;8.88;;;;;;;4.90;86.96;102649.59;5023644;28;20033;-23
2022/01/24 02:55:49;;;;;;;14.40;8.70;;;;;;;4.91;86.98;102654.91;5026383;28;20577;-23
2022/01/24 02:58:16;;;;;;;12.57;8.57;;;;;;;4.89;87.36;102643.47;5025412;28;20508;-23
2022/01/24 03:00:44;;;;;;;12.32;8.00;;;;;;;4.90;87.05;102652.22;5023800;28;20033;-23
2022/01/24 03:03:10;;;;;;;13.65;7.80;;;;;;;4.91;87.49;102652.28;5024934;28;20520;-23
2022/01/24 03:05:35;;;;;;;15.10;8.75;;;;;;;4.91;87.86;102654.00;5026421;28;20052;-23
2022/01/24 03:08:01;;;;;;;13.55;8.57;;;;;;;4.90;87.70;102654.81;5027166;28;20109;-23
2022/01/24 03:10:34;;;;;;;14.13;9.20;;;;;;;4.90;87.54;102655.69;5025862;28;20158;-23
2022/01/24 03:15:38;;;;;;;14.43;8.45;;;;;;;4.90;86.83;102654.81;5025831;28;20084;-23
2022/01/24 03:18:05;;;;;;;12.63;8.85;;;;;;;4.91;88.40;102654.91;5027469;28;20029;-23
2022/01/24 03:20:31;;;;;;;14.32;8.98;;;;;;;4.91;87.70;102654.91;5027829;28;20413;-23
2022/01/24 03:22:56;;;;;;;18.08;9.98;;;;;;;4.89;88.04;102653.91;5027114;28;20030;-23
2022/01/24 03:25:22;;;;;;;15.63;9.02;;;;;;;4.89;87.53;102651.31;5025709;28;20036;-23
2022/01/24 03:27:47;;;;;;;16.45;10.43;;;;;;;4.90;88.23;102658.31;5025610;28;20021;-23
2022/01/24 03:30:12;;;;;;;16.55;10.50;;;;;;;4.90;88.63;102655.69;5026381;28;20512;-23
2022/01/24 03:32:38;;;;;;;20.60;10.68;;;;;;;4.91;89.14;102652.28;5022427;28;20048;-23
2022/01/24 03:35:07;;;;;;;15.60;9.07;;;;;;;4.90;88.85;102655.69;5026522;28;20698;-23
2022/01/24 03:37:34;;;;;;;14.60;8.68;;;;;;;4.89;87.86;102659.16;5026660;28;20500;-23
2022/01/24 03:40:01;;;;;;;17.23;9.20;;;;;;;4.88;87.87;102653.00;5021662;28;20102;-23
2022/01/24 03:42:26;;;;;;;16.77;10.27;;;;;;;4.90;87.75;102660.06;5023265;28;20028;-23
2022/01/24 03:44:57;;;;;;;16.98;9.13;;;;;;;4.87;87.91;102656.47;5025742;28;20037;-23
2022/01/24 03:50:04;;;;;;;16.75;10.05;;;;;;;4.89;87.58;102659.16;5025676;28;20388;-23
2022/01/24 03:52:30;;;;;;;14.30;9.70;;;;;;;4.88;87.18;102658.25;5025707;28;20389;-23
2022/01/24 03:54:56;;;;;;;16.13;8.77;;;;;;;4.90;88.21;102665.28;5026454;28;20040;-23
2022/01/24 03:57:22;;;;;;;15.57;9.55;;;;;;;4.88;88.00;102667.81;5023657;28;20048;-23
2022/01/24 03:59:48;;;;;;;16.35;8.85;;;;;;;4.87;87.31;102666.91;5019701;28;20042;-23
2022/01/24 04:02:13;;;;;;;15.10;8.90;;;;;;;4.87;87.35;102660.81;5026543;28;20038;-23
2022/01/24 04:04:40;;;;;;;19.08;9.60;;;;;;;4.88;88.28;102662.59;5025556;28;20032;-23
2022/01/24 04:07:05;;;;;;;18.73;10.82;;;;;;;4.90;88.32;102671.38;5028335;28;20191;-23
2022/01/24 04:09:31;;;;;;;17.27;10.98;;;;;;;4.89;87.90;102664.38;5025177;28;20512;-23
2022/01/24 04:11:59;;;;;;;17.20;9.95;;;;;;;4.88;88.90;102658.25;5024728;28;20133;-23
2022/01/24 04:17:07;;;;;;;21.90;12.18;;;;;;;4.87;88.20;102653.84;5026014;28;20128;-23
2022/01/24 04:22:37;;;;;;;21.88;12.95;;;;;;;4.90;88.42;102653.09;5026904;28;20048;-24
2022/01/24 04:25:05;;;;;;;27.05;13.70;;;;;;;4.87;88.69;102642.50;5024429;28;20393;-23
2022/01/24 04:27:31;;;;;;;23.15;11.98;;;;;;;4.87;88.08;102650.34;5026620;28;20042;-23
2022/01/24 04:29:57;;;;;;;21.77;12.55;;;;;;;4.90;88.48;102649.59;5026902;28;20021;-23
2022/01/24 04:32:23;;;;;;;18.42;11.23;;;;;;;4.88;88.16;102655.63;5027859;28;20053;-23
2022/01/24 04:34:50;;;;;;;17.88;11.23;;;;;;;4.88;87.92;102649.53;5027985;28;20120;-23
2022/01/24 04:37:16;;;;;;;21.35;11.55;;;;;;;4.88;88.05;102646.91;5025250;28;20736;-23
2022/01/24 04:39:43;;;;;;;19.27;11.88;;;;;;;4.88;88.14;102657.38;5025896;28;20701;-23
2022/01/24 04:42:15;;;;;;;25.20;13.35;;;;;;;4.88;88.71;102646.91;5027524;28;20025;-23
2022/01/24 04:45:21;;;;;;;25.52;11.52;;;;;;;4.90;88.55;102646.97;5028232;28;20029;-23
2022/01/24 04:50:44;;;;;;;20.52;11.43;;;;;;;4.89;88.84;102648.69;5024368;28;20037;-23
2022/01/24 04:53:43;;;;;;;23.63;12.35;;;;;;;4.88;88.30;102650.41;5024359;28;20216;-23
2022/01/24 04:56:01;;;;;;;;;;;;;;;4.88;88.49;102647.78;5026877;28;20453;-25
2022/01/24 04:58:26;;;;;;;20.85;11.38;;;;;;;4.89;88.30;102651.31;5026852;28;19917;-23
2022/01/24 05:00:52;;;;;;;23.60;11.82;;;;;;;4.88;88.24;102652.13;5028545;28;20064;-23
2022/01/24 05:03:17;;;;;;;25.02;12.88;;;;;;;4.88;88.43;102657.38;5028373;28;20028;-23
2022/01/24 05:05:44;;;;;;;21.42;12.10;;;;;;;4.88;87.75;102657.38;5027253;28;20103;-23
2022/01/24 05:08:10;;;;;;;22.80;13.68;;;;;;;4.88;88.11;102668.69;5027443;28;20021;-23
2022/01/24 05:10:42;;;;;;;21.30;12.55;;;;;;;4.89;88.21;102667.00;5025516;28;20033;-23
2022/01/24 05:23:27;;;;;;;20.77;10.35;;;;;;;4.85;88.09;102655.50;5025819;28;20032;-23
2022/01/24 05:24:08;;;;;;;18.85;11.15;;;;;;;4.87;88.05;102658.19;5029790;28;20081;-23
2022/01/24 05:26:34;;;;;;;23.20;11.23;;;;;;;4.85;88.29;102658.13;5026175;28;20466;-23
2022/01/24 05:28:59;;;;;;;20.35;10.75;;;;;;;4.86;87.98;102659.00;5024203;28;20064;-23
2022/01/24 05:31:25;;;;;;;21.30;11.05;;;;;;;4.86;87.88;102669.47;5024747;28;20090;-23
2022/01/24 05:33:50;;;;;;;20.75;10.60;;;;;;;4.85;87.95;102675.53;5026176;28;20022;-23
2022/01/24 05:36:16;;;;;;;19.80;11.38;;;;;;;4.86;88.27;102666.84;5026504;28;20029;-23
2022/01/24 05:38:41;;;;;;;19.38;10.82;;;;;;;4.86;87.45;102677.31;5024219;28;20408;-23
2022/01/24 05:41:07;;;;;;;20.70;10.45;;;;;;;4.85;87.66;102678.13;5018840;28;20545;-23
2022/01/24 05:43:35;;;;;;;17.85;11.63;;;;;;;4.84;87.98;102677.22;5022885;28;20063;-23
2022/01/24 05:46:01;;;;;;;19.08;10.43;;;;;;;4.86;87.76;102682.53;5027231;28;20056;-23
2022/01/24 05:48:26;;;;;;;18.70;10.80;;;;;;;4.85;87.33;102692.13;5025244;28;20059;-23
2022/01/24 05:50:52;;;;;;;18.30;10.93;;;;;;;4.85;87.76;102691.22;5027125;28;20057;-23
2022/01/24 05:53:17;;;;;;;19.70;11.30;;;;;;;4.84;87.95;102687.69;5023994;28;20025;-23
2022/01/24 05:55:43;;;;;;;19.38;10.68;;;;;;;4.85;87.78;102685.97;5026471;28;20487;-23
2022/01/24 05:58:08;;;;;;;20.20;11.00;;;;;;;4.85;87.71;102686.88;5027019;28;20475;-23
2022/01/24 06:00:34;;;;;;;21.23;10.60;;;;;;;4.85;88.19;102688.59;5026889;28;20464;-23
2022/01/24 06:03:00;;;;;;;18.23;10.52;;;;;;;4.84;88.04;102682.47;5024344;28;20044;-23
2022/01/24 06:05:27;;;;;;;19.65;10.48;;;;;;;4.85;87.59;102683.38;5024298;28;20022;-23
2022/01/24 06:07:54;;;;;;;18.20;9.95;;;;;;;4.86;87.40;102690.38;5022140;28;20060;-23
2022/01/24 06:10:19;;;;;;;20.35;10.48;;;;;;;4.84;88.02;102685.06;5026096;28;20025;-23
2022/01/24 06:12:45;;;;;;;20.75;10.90;;;;;;;4.85;87.74;102684.28;5027725;28;20100;-23
2022/01/24 06:15:11;;;;;;;19.08;10.57;;;;;;;4.85;87.88;102685.97;5023440;28;20064;-23
2022/01/24 06:17:36;;;;;;;18.25;9.25;;;;;;;4.82;87.64;102686.72;5026694;28;20025;-24
2022/01/24 06:20:04;;;;;;;19.75;10.57;;;;;;;4.85;87.66;102688.59;5026347;28;20036;-23
2022/01/24 06:22:30;;;;;;;20.38;10.63;;;;;;;4.84;87.38;102684.19;5026347;28;20045;-23
2022/01/24 06:24:55;;;;;;;15.75;10.85;;;;;;;4.84;87.73;102689.44;5020415;28;20026;-23
2022/01/24 06:27:21;;;;;;;18.00;10.68;;;;;;;4.84;87.83;102690.31;5022707;28;20239;-23
2022/01/24 06:29:46;;;;;;;18.50;10.75;;;;;;;4.85;87.42;102688.59;5027511;28;20563;-23
2022/01/24 06:32:12;;;;;;;19.58;10.60;;;;;;;4.85;88.11;102675.53;5030441;28;20064;-23
2022/01/24 06:34:38;;;;;;;18.13;10.02;;;;;;;4.85;88.52;102683.38;5029799;28;20087;-23
2022/01/24 06:37:04;;;;;;;19.55;11.15;;;;;;;4.85;88.65;102694.72;5027171;28;20508;-23
2022/01/24 06:39:30;;;;;;;21.38;10.00;;;;;;;4.84;89.16;102698.16;5026204;28;20052;-23
2022/01/24 06:42:15;;;;;;;20.27;10.85;;;;;;;4.85;89.32;102691.22;5029250;28;20441;-23
2022/01/24 06:44:41;;;;;;;19.75;10.82;;;;;;;4.84;89.00;102694.66;5028298;28;20052;-23
2022/01/24 06:47:07;;;;;;;19.08;10.35;;;;;;;4.83;88.97;102698.06;5032395;28;20028;-23
2022/01/24 06:49:35;;;;;;;19.98;10.85;;;;;;;4.84;88.95;102694.66;5029283;28;20508;-23
2022/01/24 06:52:00;;;;;;;20.65;10.82;;;;;;;4.82;88.38;102705.03;5028794;28;20071;-23
2022/01/24 06:54:26;;;;;;;19.23;10.50;;;;;;;4.83;88.31;102705.91;5028387;28;20061;-23
2022/01/24 06:56:51;;;;;;;18.63;10.07;;;;;;;4.83;88.02;102704.22;5029291;28;20050;-23
2022/01/24 06:59:17;;;;;;;18.08;10.35;;;;;;;4.83;88.50;102705.91;5029530;28;20037;-23
2022/01/24 07:01:43;;;;;;;16.95;10.10;;;;;;;4.84;88.79;102710.34;5027065;28;20025;-23
2022/01/24 07:04:08;;;;;;;20.00;11.10;;;;;;;4.83;88.83;102713.75;5026962;28;20367;-23
2022/01/24 07:06:34;;;;;;;19.08;10.80;;;;;;;4.83;88.78;102705.91;5027707;28;20029;-23
2022/01/24 07:08:59;;;;;;;20.13;10.88;;;;;;;4.84;88.29;102710.34;5025210;28;20037;-23
2022/01/24 07:11:25;;;;;;;19.88;10.60;;;;;;;4.82;88.52;102705.03;5026735;28;20029;-23
2022/01/24 07:13:53;;;;;;;18.63;10.15;;;;;;;4.83;88.79;102712.06;5027275;28;20456;-23
2022/01/24 07:16:18;;;;;;;19.17;10.63;;;;;;;4.83;89.09;102706.81;5021493;28;20033;-23
2022/01/24 07:19:00;;;;;;;17.75;10.02;;;;;;;4.82;88.56;102698.91;5027157;28;20551;-23
2022/01/24 07:21:26;;;;;;;22.00;11.00;;;;;;;4.82;88.98;102701.50;5025445;28;20444;-23
2022/01/24 07:23:51;;;;;;;21.38;11.32;;;;;;;4.82;89.26;102701.50;5027669;28;20029;-23
2022/01/24 07:26:17;;;;;;;20.58;10.95;;;;;;;4.82;89.38;102704.13;5022718;28;20478;-24
2022/01/24 07:28:44;;;;;;;17.75;10.63;;;;;;;4.81;88.82;102708.47;5025636;28;20045;-23
2022/01/24 07:31:11;;;;;;;16.50;9.85;;;;;;;4.81;88.96;102711.09;5025847;28;20033;-23
2022/01/24 07:33:36;;;;;;;17.98;9.23;;;;;;;4.82;88.29;102714.59;5027779;28;20022;-23
2022/01/24 07:36:02;;;;;;;18.13;10.40;;;;;;;4.82;88.25;102714.59;5025655;28;20056;-23
2022/01/24 07:38:28;;;;;;;19.38;11.02;;;;;;;4.82;88.53;102715.50;5026025;28;20500;-23
2022/01/24 07:40:56;;;;;;;18.50;10.27;;;;;;;4.82;88.11;102711.97;5025489;28;20056;-23
2022/01/24 07:43:22;;;;;;;20.23;11.13;;;;;;;4.82;88.19;102714.59;5029192;28;20059;-23
2022/01/24 07:45:48;;;;;;;17.63;8.98;;;;;;;4.82;87.81;102718.13;5029182;28;20053;-23
2022/01/24 07:48:15;;;;;;;17.77;9.88;;;;;;;4.83;88.25;102719.00;5026669;28;20068;-23
2022/01/24 07:50:43;;;;;;;21.15;11.57;;;;;;;4.82;88.68;102714.59;5023433;28;20469;-23
2022/01/24 07:53:12;;;;;;;17.58;10.40;;;;;;;4.82;87.87;102709.34;5027442;28;20100;-23
2022/01/24 07:55:37;;;;;;;15.68;9.60;;;;;;;4.82;88.31;102714.59;5027494;28;20080;-23
2022/01/24 07:58:04;;;;;;;17.85;10.27;;;;;;;4.83;87.62;102711.13;5025585;28;20489;-23
2022/01/24 08:00:30;;;;;;;15.73;10.43;;;;;;;4.83;88.36;102721.59;5025736;28;20032;-23
2022/01/24 08:02:57;;;;;;;17.88;10.18;;;;;;;4.83;87.90;102721.59;5027595;28;20538;-23
2022/01/24 08:05:24;;;;;;;17.75;10.02;;;;;;;4.84;87.36;102723.41;5027042;28;20385;-23
2022/01/24 08:07:50;;;;;;;17.95;11.45;;;;;;;4.84;88.00;102723.41;5025089;28;20470;-23
2022/01/24 08:10:15;;;;;;;19.02;9.70;;;;;;;4.84;87.98;102720.81;5026227;28;20087;-23
2022/01/24 08:12:43;;;;;;;19.52;9.88;;;;;;;4.84;88.23;102720.81;5023766;28;20445;-23
2022/01/24 08:15:12;;;;;;;16.63;8.95;;;;;;;4.85;87.91;102725.19;5022102;28;20119;-23
2022/01/24 08:17:38;;;;;;;20.02;9.80;;;;;;;4.86;87.69;102719.13;5021076;28;20401;-23
2022/01/24 08:20:05;;;;;;;21.17;11.20;;;;;;;4.87;88.34;102719.22;5023337;28;20087;-23
2022/01/24 08:22:30;;;;;;;16.33;9.82;;;;;;;4.86;87.66;102726.97;5021639;28;20046;-23
2022/01/24 08:24:56;;;;;;;20.90;10.25;;;;;;;4.86;87.76;102721.75;5027071;28;20060;-23
2022/01/24 08:27:24;;;;;;;18.23;9.80;;;;;;;4.88;87.96;102725.34;5023790;28;20563;-23
2022/01/24 08:29:50;;;;;;;17.17;9.93;;;;;;;4.88;87.74;102720.13;5020241;28;20401;-23
2022/01/24 08:32:17;;;;;;;18.40;9.70;;;;;;;4.89;87.75;102724.53;5022928;28;20029;-23
2022/01/24 08:34:42;;;;;;;17.33;9.70;;;;;;;4.88;87.71;102726.22;5021980;28;20033;-23
2022/01/24 08:37:08;;;;;;;16.98;9.68;;;;;;;4.91;87.84;102730.72;5022720;28;20035;-23
2022/01/24 08:39:34;;;;;;;18.77;9.93;;;;;;;4.90;87.84;102728.03;5023592;28;20037;-23
2022/01/24 08:42:13;;;;;;;17.58;9.02;;;;;;;4.92;87.97;102726.38;5021791;28;20025;-23
2022/01/24 08:47:28;;;;;;;18.15;10.57;;;;;;;4.95;88.49;102724.81;5023707;28;20079;-23
2022/01/24 08:49:54;;;;;;;18.38;10.02;;;;;;;4.96;88.21;102726.59;5023530;28;20034;-23
2022/01/24 08:52:20;;;;;;;19.17;9.77;;;;;;;4.96;88.26;102724.00;5023290;28;20013;-23
2022/01/24 08:54:46;;;;;;;17.73;9.32;;;;;;;4.97;87.86;102720.53;5022505;28;20397;-23
2022/01/24 08:57:13;;;;;;;20.30;10.30;;;;;;;4.99;87.50;102726.75;5026022;28;20025;-23
2022/01/24 08:59:39;;;;;;;21.85;10.50;;;;;;;5.00;87.83;102723.31;5022781;28;20040;-23
2022/01/24 09:02:06;;;;;;;17.52;9.77;;;;;;;5.01;88.66;102725.09;5025352;28;20025;-23
2022/01/24 09:04:32;;;;;;;21.95;9.82;;;;;;;5.05;88.69;102725.25;5019275;28;20026;-23
2022/01/24 09:07:02;;;;;;;20.42;10.90;;;;;;;5.05;88.04;102730.47;5025327;28;20028;-23
2022/01/24 09:09:28;;;;;;;21.23;11.10;;;;;;;5.07;88.94;102721.00;5020238;28;20542;-23
2022/01/24 09:11:54;;;;;;;22.52;11.48;;;;;;;5.07;88.56;102721.88;5019060;28;20108;-23
2022/01/24 09:14:19;;;;;;;16.92;10.55;;;;;;;5.09;88.83;102729.78;5021006;28;20021;-23
2022/01/24 09:16:46;;;;;;;20.92;10.40;;;;;;;5.09;88.26;102724.56;5015839;28;20125;-23
2022/01/24 09:19:12;;;;;;;19.60;9.65;;;;;;;5.10;87.94;102726.38;5023189;28;20025;-23
2022/01/24 09:21:38;;;;;;;18.80;11.98;;;;;;;5.12;87.63;102729.94;5024595;28;20509;-23
2022/01/24 09:24:05;;;;;;;20.40;9.95;;;;;;;5.14;87.93;102725.69;5020407;28;20112;-23
2022/01/24 09:26:31;;;;;;;17.92;9.60;;;;;;;5.14;88.27;102723.94;5024125;28;20021;-23
2022/01/24 09:28:56;;;;;;;16.77;9.07;;;;;;;5.17;88.05;102722.31;5026052;28;20053;-23
2022/01/24 09:31:22;;;;;;;18.23;9.82;;;;;;;5.18;87.82;102731.94;5026898;28;20060;-23
2022/01/24 09:33:50;;;;;;;17.85;10.35;;;;;;;5.20;87.41;102733.81;5024161;28;20087;-23
2022/01/24 09:36:16;;;;;;;14.98;9.15;;;;;;;5.22;89.01;102721.69;5023311;28;20026;-23
2022/01/24 09:38:41;;;;;;;16.17;9.70;;;;;;;5.23;88.56;102733.94;5027659;28;20029;-23
2022/01/24 09:41:10;;;;;;;17.40;9.68;;;;;;;5.23;88.77;102733.94;5025875;28;20029;-23
2022/01/24 09:43:35;;;;;;;18.27;9.43;;;;;;;5.26;88.82;102728.88;5025187;28;20428;-23
2022/01/24 09:46:02;;;;;;;18.55;9.35;;;;;;;5.25;88.43;102732.31;5025408;28;20025;-23
2022/01/24 09:48:30;;;;;;;17.60;9.02;;;;;;;5.28;88.46;102725.41;5017969;28;20492;-23
2022/01/24 09:50:55;;;;;;;15.98;9.02;;;;;;;5.27;88.42;102721.94;5023821;28;20056;-23
2022/01/24 09:53:24;;;;;;;21.58;9.80;;;;;;;5.30;87.56;102723.78;5022511;28;20619;-23
2022/01/24 09:55:51;;;;;;;15.75;8.70;;;;;;;5.30;87.90;102724.66;5024700;28;20021;-23
2022/01/24 09:58:18;;;;;;;14.68;8.75;;;;;;;5.31;87.48;102728.19;5023619;28;20030;-23
2022/01/24 10:00:44;;;;;;;14.15;8.43;;;;;;;5.32;88.09;102730.88;5025706;28;20025;-23
2022/01/24 10:03:14;;;;;;;16.05;9.32;;;;;;;5.34;87.46;102730.94;5024413;28;20057;-23
2022/01/24 10:05:42;;;;;;;18.83;8.18;;;;;;;5.35;88.17;102728.41;5023873;28;20112;-23
2022/01/24 10:08:13;;;;;;;15.48;7.93;;;;;;;5.38;87.45;102722.41;5027099;28;21072;-23
2022/01/24 10:10:46;;;;;;;13.35;7.90;;;;;;;5.37;87.54;102721.50;5027864;28;20405;-23
2022/01/24 10:16:47;;;;;;;14.85;8.35;;;;;;;5.42;89.54;102719.09;5023827;28;20524;-23
2022/01/24 10:19:21;;;;;;;14.95;8.68;;;;;;;5.42;88.62;102729.56;5022496;28;20032;-23
2022/01/24 10:21:56;;;;;;;14.13;8.23;;;;;;;5.45;88.22;102728.81;5024399;28;20029;-23
2022/01/24 10:24:41;;;;;;;14.02;8.57;;;;;;;5.46;88.38;102725.34;5022875;28;20017;-23
2022/01/24 10:27:17;;;;;;;17.42;9.88;;;;;;;5.48;89.65;102724.63;5024610;28;20521;-23
2022/01/24 10:29:58;;;;;;;13.13;8.30;;;;;;;5.49;88.26;102730.72;5026465;28;20030;-23
2022/01/24 10:32:41;;;;;;;17.73;8.98;;;;;;;5.51;89.04;102724.72;5022248;28;20026;-23
2022/01/24 10:35:27;;;;;;;18.02;7.95;;;;;;;5.54;89.47;102720.47;5026176;28;20036;-23
2022/01/24 10:38:16;;;;;;;16.23;9.45;;;;;;;5.55;89.52;102719.66;5023283;28;20033;-23
2022/01/24 10:40:50;;;;;;;13.93;8.32;;;;;;;5.57;90.19;102718.00;5022093;28;20037;-23
2022/01/24 10:43:24;;;;;;;12.93;7.90;;;;;;;5.57;89.94;102718.00;5020052;28;20033;-23
2022/01/24 10:45:51;;;;;;;17.38;8.77;;;;;;;5.58;89.62;102714.56;5025570;28;20048;-23
2022/01/24 10:48:27;;;;;;;15.23;9.40;;;;;;;5.58;89.26;102715.47;5025436;28;20482;-23
2022/01/24 10:51:20;;;;;;;11.25;7.47;;;;;;;5.61;88.74;102704.22;5023922;28;20401;-23
2022/01/24 10:53:50;;;;;;;14.30;8.73;;;;;;;5.61;88.24;102693.75;5024380;28;20511;-23
2022/01/24 10:56:30;;;;;;;14.00;7.78;;;;;;;5.63;88.83;102697.31;5023660;28;20036;-23
2022/01/24 10:59:17;;;;;;;15.52;8.20;;;;;;;5.65;88.56;102688.72;5022568;28;20464;-23
2022/01/24 11:01:46;;;;;;;14.48;7.78;;;;;;;5.67;88.13;102686.16;5024085;28;20021;-23
2022/01/24 11:04:13;;;;;;;11.23;6.95;;;;;;;5.66;88.49;102686.97;5022903;28;20017;-23
2022/01/24 11:06:41;;;;;;;12.55;7.70;;;;;;;5.69;88.56;102681.88;5019920;28;20553;-23
2022/01/24 11:09:22;;;;;;;14.52;8.27;;;;;;;5.72;89.23;102681.13;5021967;28;20524;-23
2022/01/24 11:11:49;;;;;;;12.40;7.27;;;;;;;5.74;88.57;102682.09;5023967;28;20021;-23
2022/01/24 11:14:18;;;;;;;12.77;7.80;;;;;;;5.73;89.66;102673.34;5026085;28;20105;-23
2022/01/24 11:16:43;;;;;;;13.77;7.57;;;;;;;5.75;89.12;102673.41;5024589;28;20036;-23
2022/01/24 11:19:15;;;;;;;13.48;6.85;;;;;;;5.77;89.31;102666.53;5026902;28;20030;-23
2022/01/24 11:21:44;;;;;;;12.52;7.50;;;;;;;5.78;89.00;102666.56;5029135;28;20029;-23
2022/01/24 11:24:10;;;;;;;13.27;7.60;;;;;;;5.80;88.58;102665.75;5025285;28;20029;-23
2022/01/24 11:26:36;;;;;;;13.00;8.13;;;;;;;5.80;88.30;102663.13;5025209;28;20045;-23
2022/01/24 11:29:04;;;;;;;11.65;6.95;;;;;;;5.83;89.02;102665.88;5026058;28;20028;-23
2022/01/24 11:31:41;;;;;;;11.85;6.70;;;;;;;5.85;88.44;102664.22;5024618;28;20151;-23
2022/01/24 11:34:33;;;;;;;10.88;6.30;;;;;;;5.86;88.24;102658.13;5027237;28;20234;-23
2022/01/24 11:36:59;;;;;;;12.45;6.88;;;;;;;5.86;88.41;102659.03;5024556;28;20099;-23
2022/01/24 11:39:24;;;;;;;10.68;6.47;;;;;;;5.88;88.00;102661.72;5027492;28;20469;-23
2022/01/24 11:41:51;;;;;;;10.90;6.65;;;;;;;5.89;87.45;102663.50;5025581;28;20068;-23
2022/01/24 11:44:18;;;;;;;9.52;5.85;;;;;;;5.89;87.30;102648.69;5026946;28;20024;-24
2022/01/24 11:46:55;;;;;;;9.65;6.22;;;;;;;5.93;87.37;102659.31;5029932;28;20109;-23
2022/01/24 11:49:25;;;;;;;10.73;6.13;;;;;;;5.95;88.35;102657.63;5024926;28;20053;-23
2022/01/24 11:52:13;;;;;;;10.40;6.75;;;;;;;5.96;88.06;102662.03;5025887;28;20036;-23
2022/01/24 11:57:18;;;;;;;9.45;6.28;;;;;;;5.98;87.85;102663.00;5026220;28;20030;-23
2022/01/24 11:59:44;;;;;;;9.52;6.15;;;;;;;5.98;87.49;102657.78;5024254;28;20606;-23
2022/01/24 12:02:12;;;;;;;9.40;6.40;;;;;;;5.98;87.58;102658.69;5021235;28;20036;-23
2022/01/24 12:05:10;;;;;;;11.90;6.30;;;;;;;6.02;87.07;102659.69;5027485;28;20037;-23
2022/01/24 12:07:57;;;;;;;9.38;6.38;;;;;;;6.01;87.61;102656.16;5008589;28;20068;-23
2022/01/24 12:10:26;;;;;;;8.25;6.22;;;;;;;6.04;87.38;102665.94;5025341;28;20120;-23
2022/01/24 12:12:55;;;;;;;9.10;6.78;;;;;;;6.05;86.82;102658.94;5025929;28;20034;-23
2022/01/24 12:15:36;;;;;;;11.10;5.63;;;;;;;6.06;87.10;102650.28;5024643;28;20025;-23
2022/01/24 12:18:06;;;;;;;8.75;5.50;;;;;;;6.06;86.74;102655.53;5022616;28;20026;-23
2022/01/24 12:20:31;;;;;;;10.18;5.22;;;;;;;6.07;86.76;102657.31;5024700;28;20029;-23
2022/01/24 12:22:58;;;;;;;8.88;5.70;;;;;;;6.06;86.77;102645.91;5023896;28;20036;-23
2022/01/24 12:25:49;;;;;;;8.05;5.32;;;;;;;6.08;86.57;102644.28;5023915;28;20033;-23
2022/01/24 12:28:16;;;;;;;9.38;5.63;;;;;;;6.09;87.01;102645.16;5023724;28;20025;-23
2022/01/24 12:31:00;;;;;;;10.98;6.32;;;;;;;6.10;86.36;102644.34;5024746;28;20076;-23
2022/01/24 12:33:38;;;;;;;7.97;5.15;;;;;;;6.11;86.69;102643.50;5024195;28;20572;-23
2022/01/24 12:36:11;;;;;;;9.55;5.40;;;;;;;6.11;86.91;102644.38;5023634;28;20447;-23
2022/01/24 12:38:48;;;;;;;9.98;5.65;;;;;;;6.12;86.86;102645.28;5024952;28;20052;-23
2022/01/24 12:41:20;;;;;;;8.80;5.55;;;;;;;6.12;86.36;102642.66;5025492;28;20043;-23
2022/01/24 12:46:18;;;;;;;7.03;5.45;;;;;;;6.11;85.84;102639.13;5022244;28;20034;-23
2022/01/24 12:46:37;;;;;;;;;;;;;;;6.13;86.04;102637.47;5023257;28;20053;-23
2022/01/24 12:49:06;;;;;;;10.32;5.50;;;;;;;6.11;86.33;102643.50;5024233;28;19991;-23
2022/01/24 12:51:35;;;;;;;7.25;5.10;;;;;;;6.11;85.97;102635.63;5027555;28;20083;-23
2022/01/24 12:54:02;;;;;;;8.38;5.82;;;;;;;6.12;85.96;102635.69;5021154;28;20017;-24
2022/01/24 12:56:29;;;;;;;8.90;5.97;;;;;;;6.12;86.45;102640.94;5024548;28;20064;-23
2022/01/24 12:58:56;;;;;;;7.68;4.90;;;;;;;6.12;85.94;102635.69;5029523;28;20033;-23
2022/01/24 13:01:30;;;;;;;8.70;5.53;;;;;;;6.11;86.24;102636.50;5023713;28;20109;-22
2022/01/24 13:04:08;;;;;;;9.15;5.85;;;;;;;6.11;85.96;102628.66;5028253;28;20075;-22
2022/01/24 13:06:35;;;;;;;8.18;5.35;;;;;;;6.13;85.75;102632.25;5023791;28;20036;-25
2022/01/24 13:09:02;;;;;;;8.98;5.80;;;;;;;6.13;86.03;102623.47;5025681;28;20029;-23
2022/01/24 13:11:30;;;;;;;8.05;4.57;;;;;;;6.13;86.33;102624.38;5022470;28;20079;-22
2022/01/24 13:14:11;;;;;;;8.40;4.30;;;;;;;6.13;85.78;102620.84;5027034;28;20021;-22